Latest Weather Observations for Robe Airport

IDS60801

Issued at 10:01 pm CST Monday 30 May 2016 (issued every 30 minutes, with the page automatically refreshed every 10 minutes)

About weather observations | Map of weather stations | Latest weather observations for SA | Other Formats
Station Details ID: 026105 Name: ROBE AIRFIELD Lat: -37.18 Lon: 139.81 Height: 3.0 m
Data from the previous 72 hours. | See also: Recent months at Robe Airport
Date/Time
CST
Temp
°C
App
Temp
°C
Dew
Point
Rel
Hum
%
Delta-T
°C
Wind Press
QNH
hPa
Press
MSL
hPa
Rain
since 9 am
mm
Dir
 
Spd
km/h
Gust
km/h
Spd
kts
Gust
kts
30/10:00pm 10.2 6.0 7.4 83 1.3 NE 19 26 10 14 1023.8 1023.8 3.8
30/09:30pm 10.1 6.3 7.5 84 1.2 NE 17 26 9 14 1023.7 1023.7 3.8
30/09:00pm 10.3 6.6 7.9 85 1.2 ENE 17 24 9 13 1023.5 1023.5 3.8
30/08:30pm 10.8 6.8 8.2 84 1.3 NE 19 26 10 14 1023.3 1023.3 3.8
30/08:00pm 10.6 6.4 8.2 85 1.2 ENE 20 28 11 15 1023.0 1023.0 3.8
30/07:30pm 10.9 7.4 8.7 86 1.1 NE 17 24 9 13 1023.1 1023.1 3.8
30/07:00pm 11.0 7.6 9.1 88 0.9 ENE 17 24 9 13 1022.9 1022.9 3.8
30/06:30pm 11.5 8.4 8.9 84 1.3 ENE 15 22 8 12 1022.7 1022.7 3.4
30/06:00pm 11.4 8.3 9.0 85 1.2 ENE 15 24 8 13 1022.1 1022.1 3.4
30/05:30pm 11.4 8.5 9.5 88 1.0 ENE 15 20 8 11 1021.9 1021.9 3.4
30/05:00pm 11.7 9.6 9.9 89 0.9 ENE 11 15 6 8 1021.8 1021.8 3.4
30/04:30pm 11.7 9.6 9.9 89 0.9 ENE 11 19 6 10 1021.5 1021.5 3.4
30/04:00pm 11.5 9.1 10.2 92 0.7 ENE 13 17 7 9 1021.3 1021.3 3.4
30/03:30pm 11.2 8.4 10.1 93 0.6 ENE 15 22 8 12 1021.1 1021.1 3.0
30/03:00pm 11.3 8.5 9.9 91 0.7 NE 15 19 8 10 1021.2 1021.2 1.2
30/02:30pm 12.1 9.1 9.3 83 1.4 NE 15 20 8 11 1021.3 1021.3 0.2
30/02:00pm 12.8 9.3 8.7 76 2.0 NE 17 24 9 13 1021.1 1021.1 0.0
30/01:30pm 13.2 9.0 8.1 71 2.5 NE 20 32 11 17 1020.9 1020.9 0.0
30/01:00pm 13.4 8.8 8.0 70 2.7 NE 22 30 12 16 1020.8 1020.8 0.0
30/12:30pm 13.2 8.2 8.1 71 2.5 NE 24 32 13 17 1021.0 1021.0 0.0
30/12:00pm 12.7 7.5 7.4 70 2.6 NE 24 33 13 18 1021.5 1021.5 0.0
30/11:30am 12.0 7.8 7.5 74 2.2 NE 19 30 10 16 1021.9 1021.9 0.0
30/11:00am 11.4 6.5 6.9 74 2.1 NE 22 32 12 17 1022.2 1022.2 0.0
30/10:30am 11.3 6.4 6.8 74 2.1 NE 22 33 12 18 1022.3 1022.3 0.0
30/10:00am 10.7 5.3 6.3 74 2.1 NE 24 33 13 18 1022.3 1022.3 0.0
30/09:30am 10.0 4.5 5.8 75 1.9 NE 24 33 13 18 1022.0 1022.0 0.0
30/09:00am 9.3 3.7 5.5 77 1.7 NE 24 33 13 18 1021.9 1021.9 0.0
30/08:30am 8.5 3.3 5.4 81 1.4 NE 22 30 12 16 1021.9 1021.9 0.0
30/08:00am 7.8 2.9 5.1 83 1.2 NE 20 28 11 15 1021.8 1021.8 0.0
30/07:30am 7.2 2.4 4.9 85 1.0 ENE 19 26 10 14 1021.7 1021.7 0.0
30/07:00am 7.1 2.7 4.8 85 1.0 NE 17 22 9 12 1021.5 1021.5 0.0
30/06:30am 7.1 2.7 4.8 85 1.0 NE 17 22 9 12 1021.3 1021.3 0.0
30/06:00am 7.1 2.7 4.8 85 1.0 NE 17 22 9 12 1021.1 1021.1 0.0
30/05:30am 6.9 2.5 4.7 86 1.0 NE 17 20 9 11 1021.0 1021.0 0.0
30/05:00am 6.4 2.7 4.6 88 0.8 NE 13 17 7 9 1020.9 1020.9 0.0
30/04:30am 6.3 2.2 4.3 87 0.9 NE 15 20 8 11 1020.7 1020.7 0.0
30/04:00am 6.3 1.8 4.3 87 0.9 NE 17 24 9 13 1020.7 1020.7 0.0
30/03:30am 6.2 1.7 4.4 88 0.8 NE 17 22 9 12 1020.7 1020.7 0.0
30/03:00am 5.9 1.0 4.1 88 0.8 NE 19 24 10 13 1020.8 1020.8 0.0
30/02:30am 5.7 1.5 4.0 89 0.7 NE 15 20 8 11 1020.8 1020.8 0.0
30/02:00am 5.6 1.1 4.1 90 0.6 NE 17 20 9 11 1020.8 1020.8 0.0
30/01:30am 5.4 1.3 4.1 91 0.5 NE 15 19 8 10 1020.7 1020.7 0.0
30/01:00am 5.3 1.5 4.1 92 0.5 NE 13 19 7 10 1020.7 1020.7 0.0
30/12:30am 5.1 1.3 3.9 92 0.5 NE 13 19 7 10 1020.7 1020.7 0.0
30/12:00am 5.0 1.1 3.5 90 0.6 NE 13 15 7 8 1020.8 1020.8 0.0
 
Date/Time
CST
Temp
°C
App
Temp
°C
Dew
Point
Rel
Hum
%
Delta-T
°C
Wind Press
QNH
hPa
Press
MSL
hPa
Rain
since 9 am
mm
Dir
 
Spd
km/h
Gust
km/h
Spd
kts
Gust
kts
29/11:30pm 4.9 1.4 3.6 91 0.5 NE 11 15 6 8 1020.6 1020.6 0.0
29/11:00pm 4.4 0.8 3.2 92 0.5 NE 11 11 6 6 1020.7 1020.7 0.0
29/10:30pm 4.5 1.3 3.2 91 0.5 NE 9 13 5 7 1020.8 1020.8 0.0
29/10:00pm 4.7 1.5 3.2 90 0.6 NE 9 11 5 6 1020.7 1020.7 0.0
29/09:30pm 5.2 1.6 3.2 87 0.8 ENE 11 15 6 8 1020.7 1020.7 0.0
29/09:00pm 5.8 2.6 3.3 84 1.0 E 9 11 5 6 1020.7 1020.7 0.0
29/08:30pm 6.0 3.2 3.3 83 1.1 ENE 7 11 4 6 1020.7 1020.7 0.0
29/08:00pm 6.0 2.9 3.7 85 1.0 ENE 9 15 5 8 1020.6 1020.6 0.0
29/07:30pm 5.4 2.8 3.3 86 0.9 E 6 9 3 5 1020.6 1020.6 0.0
29/07:00pm 5.8 2.7 3.5 85 1.0 E 9 11 5 6 1020.5 1020.5 0.0
29/06:30pm 6.1 3.6 3.6 84 1.0 E 6 7 3 4 1020.3 1020.3 0.0
29/06:00pm 6.5 3.8 3.5 81 1.3 E 7 9 4 5 1020.0 1020.0 0.0
29/05:30pm 7.6 4.7 4.4 80 1.4 E 9 11 5 6 1019.8 1019.8 0.0
29/05:00pm 8.7 5.8 4.7 76 1.8 E 9 11 5 6 1019.6 1019.6 0.0
29/04:30pm 10.4 7.2 5.2 70 2.4 ENE 11 17 6 9 1019.5 1019.5 0.0
29/04:00pm 11.8 8.7 5.4 65 3.0 NE 11 15 6 8 1019.4 1019.4 0.0
29/03:30pm 12.1 8.5 5.0 62 3.2 NE 13 20 7 11 1019.5 1019.5 0.0
29/03:00pm 13.2 9.7 5.6 60 3.6 NE 13 19 7 10 1019.5 1019.5 0.0
29/02:30pm 12.9 8.9 4.8 58 3.7 NE 15 20 8 11 1019.6 1019.6 0.0
29/02:00pm 13.0 9.1 5.4 60 3.5 NE 15 22 8 12 1019.5 1019.5 0.0
29/01:30pm 13.1 8.8 5.3 59 3.6 NE 17 22 9 12 1019.6 1019.6 0.0
29/01:00pm 13.5 9.3 5.7 59 3.7 NNE 17 22 9 12 1019.9 1019.9 0.0
29/12:30pm 13.1 8.4 5.0 58 3.7 NNE 19 28 10 15 1020.0 1020.0 0.0
29/12:00pm 12.9 8.6 5.3 60 3.5 NE 17 24 9 13 1020.4 1020.4 0.0
29/11:30am 12.5 7.6 5.0 60 3.4 ENE 20 30 11 16 1020.6 1020.6 0.0
29/11:00am 12.3 7.5 4.5 59 3.5 NE 19 26 10 14 1020.8 1020.8 0.0
29/10:30am 11.9 6.9 4.6 61 3.3 NE 20 26 11 14 1021.0 1021.0 0.0
29/10:00am 11.6 6.6 4.6 62 3.2 NE 20 28 11 15 1021.0 1021.0 0.0
29/09:30am 11.2 6.2 4.4 63 3.0 ENE 20 28 11 15 1021.1 1021.1 0.0
29/09:00am 10.7 7.2 5.3 69 2.5 ENE 13 20 7 11 1021.0 1021.0 0.0
29/08:30am 8.9 5.7 5.3 78 1.6 NE 11 15 6 8 1020.9 1020.9 0.0
29/08:00am 8.6 5.8 5.0 78 1.6 NE 9 13 5 7 1020.7 1020.7 0.0
29/07:30am 7.8 5.0 5.1 83 1.2 NE 9 13 5 7 1020.4 1020.4 0.0
29/07:00am 6.3 3.7 4.1 86 0.9 NE 7 11 4 6 1020.2 1020.2 0.0
29/06:30am 7.5 4.7 5.0 84 1.1 ENE 9 13 5 7 1019.9 1019.9 0.0
29/06:00am 8.9 6.6 5.5 79 1.5 E 7 11 4 6 1019.9 1019.9 0.0
29/05:30am 9.0 6.8 5.4 78 1.6 E 6 7 3 4 1019.5 1019.5 0.0
29/05:00am 9.3 6.6 5.5 77 1.7 E 9 13 5 7 1019.2 1019.2 0.0
29/04:30am 9.5 6.8 5.5 76 1.8 E 9 13 5 7 1019.3 1019.3 0.0
29/04:00am 9.7 7.4 5.5 75 1.9 ESE 7 9 4 5 1019.2 1019.2 0.0
29/03:30am 9.4 7.3 5.6 77 1.7 ESE 6 7 3 4 1019.2 1019.2 0.0
29/03:00am 9.6 7.5 5.6 76 1.8 ESE 6 7 3 4 1019.2 1019.2 0.0
29/02:30am 9.8 7.7 5.6 75 1.9 ESE 6 7 3 4 1019.2 1019.2 0.0
29/02:00am 9.9 7.7 5.5 74 2.0 SE 6 11 3 6 1019.3 1019.3 0.0
29/01:30am 10.3 8.8 4.9 69 2.4 SE 2 2 1 1 1019.3 1019.3 0.0
29/01:00am 10.3 8.4 4.7 68 2.5 SE 4 6 2 3 1019.3 1019.3 0.0
29/12:30am 10.2 8.0 5.4 72 2.2 SE 6 7 3 4 1019.4 1019.4 0.0
29/12:00am 10.4 8.2 5.4 71 2.3 SE 6 7 3 4 1019.6 1019.6 0.0
 
Date/Time
CST
Temp
°C
App
Temp
°C
Dew
Point
Rel
Hum
%
Delta-T
°C
Wind Press
QNH
hPa
Press
MSL
hPa
Rain
since 9 am
mm
Dir
 
Spd
km/h
Gust
km/h
Spd
kts
Gust
kts
28/11:30pm 10.4 8.0 5.2 70 2.4 SE 7 13 4 7 1019.6 1019.6 0.0
28/11:00pm 10.0 9.3 6.9 81 1.5 CALM 0 0 0 0 1019.6 1019.6 0.0
28/10:30pm 10.3 8.7 6.5 77 1.8 SSE 4 4 2 2 1019.6 1019.6 0.0
28/10:00pm 10.4 8.3 6.0 74 2.0 SE 6 6 3 3 1019.6 1019.6 0.0
28/09:30pm 11.1 8.7 5.4 68 2.6 SE 7 9 4 5 1019.5 1019.5 0.0
28/09:00pm 11.1 8.7 5.2 67 2.7 SE 7 11 4 6 1019.2 1019.2 0.0
28/08:30pm 11.2 8.4 5.1 66 2.8 SE 9 13 5 7 1019.1 1019.1 0.0
28/08:00pm 11.4 8.6 5.1 65 2.9 SSE 9 17 5 9 1019.1 1019.1 0.0
28/07:30pm 11.3 9.2 6.0 70 2.5 SE 6 9 3 5 1019.0 1019.0 0.0
28/07:00pm 11.7 8.9 5.1 64 3.0 S 9 15 5 8 1018.7 1018.7 0.0
28/06:30pm 10.8 9.3 5.1 68 2.6 SSW 2 4 1 2 1018.5 1018.5 0.0
28/06:00pm 11.0 8.8 5.1 67 2.7 SSW 6 7 3 4 1018.4 1018.4 0.0
28/05:30pm 11.3 9.2 5.6 68 2.6 SSW 6 7 3 4 1018.1 1018.1 0.0
28/05:00pm 11.7 8.4 4.7 62 3.2 SSW 11 15 6 8 1017.9 1017.9 0.0
28/04:30pm 12.1 8.9 5.0 62 3.3 SSE 11 17 6 9 1017.7 1017.7 0.0
28/04:00pm 12.5 10.2 5.7 63 3.2 SSW 7 9 4 5 1017.5 1017.5 0.0
28/03:30pm 12.5 8.1 5.0 60 3.4 S 17 24 9 13 1017.4 1017.4 0.0
28/03:00pm 13.8 9.2 5.7 58 3.8 S 19 28 10 15 1017.1 1017.1 0.0
28/02:30pm 13.4 8.7 5.3 58 3.8 SSW 19 28 10 15 1016.9 1016.9 0.0
28/02:00pm 13.6 9.1 6.2 61 3.5 S 19 22 10 12 1016.4 1016.4 0.0
28/01:30pm 14.8 10.4 6.6 58 4.0 S 19 30 10 16 1016.4 1016.4 0.0
28/01:00pm 13.9 9.6 5.3 56 4.0 S 17 24 9 13 1016.5 1016.5 0.0
28/12:30pm 13.9 9.1 5.8 58 3.8 S 20 26 11 14 1016.4 1016.4 0.0
28/12:00pm 14.2 9.3 6.8 61 3.6 S 22 32 12 17 1016.5 1016.5 0.0
28/11:30am 14.5 10.0 6.8 60 3.7 S 20 30 11 16 1016.6 1016.6 0.0
28/11:00am 14.3 11.2 7.4 63 3.4 SE 13 20 7 11 1016.6 1016.6 0.0
28/10:30am 12.8 10.3 8.3 74 2.2 SE 11 19 6 10 1016.6 1016.6 0.0
28/10:00am 12.9 10.4 8.4 74 2.2 SSE 11 17 6 9 1016.3 1016.3 0.0
28/09:30am 11.9 10.3 8.7 81 1.6 SE 7 11 4 6 1016.0 1016.0 0.0
28/09:00am 9.9 8.1 7.8 87 1.0 SE 7 17 4 9 1015.6 1015.6 7.0
28/08:30am 9.3 8.3 8.7 96 0.3 SE 4 6 2 3 1015.3 1015.3 7.0
28/08:00am 8.4 7.9 7.8 96 0.3 CALM 0 0 0 0 1015.0 1015.0 7.0
28/07:30am 7.2 6.4 6.5 95 0.3 CALM 0 0 0 0 1014.8 1014.8 7.0
28/07:00am 7.7 6.2 6.6 93 0.5 SE 4 6 2 3 1014.3 1014.3 7.0
28/06:30am 8.2 6.2 7.3 94 0.4 SSE 7 11 4 6 1013.7 1013.7 7.0
28/06:00am 8.1 6.3 7.3 95 0.4 S 6 11 3 6 1013.2 1013.2 7.0
28/05:30am 7.4 5.4 7.0 97 0.2 S 7 7 4 4 1012.7 1012.7 7.0
28/05:00am 6.6 4.5 5.9 95 0.3 S 6 6 3 3 1012.2 1012.2 7.0
28/04:30am 7.1 4.9 6.4 95 0.3 SSE 7 11 4 6 1011.9 1011.9 7.0
28/04:00am 7.9 5.9 7.0 94 0.4 SSE 7 13 4 7 1011.5 1011.5 7.0
28/03:30am 8.7 6.1 7.6 93 0.5 SSE 11 20 6 11 1011.3 1011.3 7.0
28/03:00am 8.8 6.5 7.6 92 0.6 SSE 9 13 5 7 1011.1 1011.1 7.0
28/02:30am 9.3 6.4 8.1 92 0.6 SSE 13 19 7 10 1010.7 1010.7 7.0
28/02:00am 9.3 6.5 8.5 95 0.4 SSE 13 17 7 9 1010.4 1010.4 7.0
28/01:30am 8.9 5.7 8.5 97 0.2 SSE 15 20 8 11 1009.9 1009.9 7.0
28/01:00am 9.1 5.9 8.6 97 0.2 SSE 15 20 8 11 1009.6 1009.6 7.0
28/12:30am 8.8 6.8 8.5 98 0.1 SE 9 15 5 8 1009.1 1009.1 7.0
28/12:00am 9.1 6.4 9.0 99 0.0 SE 13 22 7 12 1008.5 1008.5 7.0
 
Date/Time
CST
Temp
°C
App
Temp
°C
Dew
Point
Rel
Hum
%
Delta-T
°C
Wind Press
QNH
hPa
Press
MSL
hPa
Rain
since 9 am
mm
Dir
 
Spd
km/h
Gust
km/h
Spd
kts
Gust
kts
27/11:30pm 9.3 6.7 9.2 99 0.0 SE 13 19 7 10 1008.2 1008.2 7.0
27/11:00pm 8.0 5.0 7.9 99 0.0 SE 13 20 7 11 1007.7 1007.7 7.0
27/10:30pm 6.4 5.1 5.8 96 0.3 WSW 2 4 1 2 1006.9 1006.9 7.0

Other Formats:

Comma delimited format used in spreadsheet applications
http://www.bom.gov.au/fwo/IDS60801/IDS60801.95816.axf

JavaScript Object Notation format (JSON) in row-major order
http://www.bom.gov.au/fwo/IDS60801/IDS60801.95816.json